Low, Canada
Current Conditions -  °F | °C
As of 9:00 PM on Tuesday 25 Nov 2014 (Local Time) from CYND Reporting Station
Broken Clouds Broken Clouds  
Wind Chill: 28°   Ceiling: 4000
Heat Index: 37°   Visibility: 15mi
Dew Point: 25°   Wind: 16mph
Humidity: 60%   Direction: 240°WSW
Pressure: 29.99"   Gusts: 22mph
Location:  45.8°N, 75.95°W
Report Text: CYND 260200Z 24014G19KT 15SM BKN040 03/M04 A2999 RMK SC5 LAST OBS/NEXT 261200 UTC SLP157
Loading
Personal Weather Stations






























Interactive Weather Map New forecast layout! Learn more

10-Day Weather Forecast

Advertisements
Track Severe Weather on mobile